EDDN Airport Information

Runway Information
Runway 10 Length 8858 ft width 148 ft
Elevation 1022 ft Threshold 0 ft Heading 99
Runway 28 Length 8858 ft Width 148 ft
Elevation 1046 ft Threshold 0 ft Heading 279
Airport Frequencies
Type AFIS Name MUNCHEN IN Frequency 120.65 MHZ
Type ATIS Name ATIS Frequency 123.075 MHZ
Type DIR Name DIR Frequency 119.475 MHZ
Type GND Name GND Frequency 118.1 MHZ
Type RDR Name MUNCHEN RA Frequency 118.975 MHZ
Type TWR Name TWR Frequency 118.3 MHZ
Airport Navaids
Type DME Name Nurnberg Frequency 113100 KHZ
Type NDB Name Rothenbach Frequency 415 KHZ
Airport Weather Information & NOTAM
ADDS - METARS form results

(0258 UTC 14 November 2018)
Data provider http://aviationweather.gov/metar/data/
 
METAR text: EDDN 140250Z 12005KT 9999 3000E BCFG FEW003 02/01 Q1031
Conditions at: EDDN (NUERNBERG , DE) observed 0250 UTC 14 November 2018
Temperature: 2.0°C (36°F)
Dewpoint: 1.0°C (34°F) [RH = 93%]
Pressure (altimeter): 30.44 inches Hg (1031.0 mb)
Winds: from the ESE (120 degrees) at 6 MPH (5 knots; 2.6 m/s)
Visibility: 6 or more miles (10+ km)
Ceiling: at least 12,000 feet AGL
Clouds: few clouds at 300 feet AGL
Weather: BCFG  (patches of fog)

METAR text: EDDN 140220Z 10006KT 9999 4000E BCFG FEW003 03/03 Q1031
Conditions at: EDDN (NUERNBERG , DE) observed 0220 UTC 14 November 2018
Temperature: 3.0°C (37°F)
Dewpoint: 3.0°C (37°F) [RH = 100%]
Pressure (altimeter): 30.44 inches Hg (1031.0 mb)
Winds: from the E (100 degrees) at 7 MPH (6 knots; 3.1 m/s)
Visibility: 6 or more miles (10+ km)
Ceiling: at least 12,000 feet AGL
Clouds: few clouds at 300 feet AGL
Weather: BCFG  (patches of fog)

Forecast for: EDDN (NUERNBERG , DE)
Text: TAF EDDN 132300Z 1400/1424 12005KT 8000 NSC
Forecast period: 0000 to 2000 UTC 14 November 2018
Forecast type: FROM: standard forecast or significant change
Winds: from the ESE (120 degrees) at 6 MPH (5 knots; 2.6 m/s)
Visibility: 5 miles (8 km)
Ceiling: unknown
Clouds: missing
Weather: no significant weather forecast for this period
Text: TEMPO 1406/1412 BKN007
Forecast period: 0600 to 1200 UTC 14 November 2018
Forecast type: TEMPORARY: The following changes expected for less than half the time period
Visibility: missing
Ceiling: 700 feet AGL
Clouds: broken clouds at 700 feet AGL
Weather: no significant weather forecast for this period
Text: BECMG 1420/1424 BKN007
Forecast period: 2000 UTC 14 November 2018 to 0000 UTC 15 November 2018
Forecast type: BECOMING: Conditions expected to become as follows by 0000 UTC 15 November 2018
Winds: from the ESE (120 degrees) at 6 MPH (5 knots; 2.6 m/s)
Visibility: 5 miles (8 km)
Ceiling: 700 feet AGL
Clouds: broken clouds at 700 feet AGL
Weather: no significant weather forecast for this period